Ledeberg, Belgium
Current Conditions -  °F | °C
As of 12:25 AM on Tuesday 21 Oct 2014 (Local Time) from EHFS Reporting Station
Scattered Clouds Scattered Clouds  
Wind Chill: 57°   Ceiling: Unl
Heat Index: 57°   Visibility: 6mi
Dew Point: 54°   Wind: 18mph
Humidity: 88%   Direction: 230°SW
Pressure: 29.88"   Gusts: NA
Location:  51.04°N, 3.74°E
Report Text: EHFS 202225Z AUTO 23016KT 9999 FEW021/// SCT033/// 14/12 Q1012
Loading
Personal Weather Stations






























Interactive Weather Map
Tropical Storm Tracking
New forecast layout! Learn more

10-Day Weather Forecast

Advertisements
Track Severe Weather on mobile